Terminal Aerodrome Forecast
Issued by NWS

Home | Current Version | Previous Version | Text Only | Print | Product List | Glossary On
Versions: 1 2 3 4 5 6 7 8 9 10 11 12 13 14 15 16 17 18 19 20 21
430
FTUS43 KDLH 211122
TAFHIB
TAF
KHIB 211122Z 2112/2212 VRB03KT P6SM SKC
     FM212100 17008KT P6SM BKN090
     FM220900 VRB03KT 6SM BR BKN060=

USA.gov is the U.S. government's official web portal to all federal, state and local government web resources and services.